sensor_id;sensor_type;location;lat;lon;timestamp;temperature;humidity
13328;DHT22;6733;51.044;3.746;2024-01-11T00:01:17;0.30;56.90
13328;DHT22;6733;51.044;3.746;2024-01-11T00:03:44;0.30;56.80
13328;DHT22;6733;51.044;3.746;2024-01-11T00:06:10;0.20;56.80
13328;DHT22;6733;51.044;3.746;2024-01-11T00:08:37;0.30;56.90
13328;DHT22;6733;51.044;3.746;2024-01-11T00:11:03;0.30;56.90
13328;DHT22;6733;51.044;3.746;2024-01-11T00:13:29;0.20;56.80
13328;DHT22;6733;51.044;3.746;2024-01-11T00:15:55;0.20;56.70
13328;DHT22;6733;51.044;3.746;2024-01-11T00:18:21;0.30;56.70
13328;DHT22;6733;51.044;3.746;2024-01-11T00:20:48;0.20;57.00
13328;DHT22;6733;51.044;3.746;2024-01-11T00:23:14;0.20;56.90
13328;DHT22;6733;51.044;3.746;2024-01-11T00:25:40;0.20;56.90
13328;DHT22;6733;51.044;3.746;2024-01-11T00:28:06;0.20;56.90
13328;DHT22;6733;51.044;3.746;2024-01-11T00:30:32;0.20;56.90
13328;DHT22;6733;51.044;3.746;2024-01-11T00:32:58;0.20;57.00
13328;DHT22;6733;51.044;3.746;2024-01-11T00:35:25;0.20;57.30
13328;DHT22;6733;51.044;3.746;2024-01-11T00:37:51;0.20;57.40
13328;DHT22;6733;51.044;3.746;2024-01-11T00:40:17;0.20;57.50
13328;DHT22;6733;51.044;3.746;2024-01-11T00:42:43;0.20;57.40
13328;DHT22;6733;51.044;3.746;2024-01-11T00:45:10;0.20;57.50
13328;DHT22;6733;51.044;3.746;2024-01-11T00:47:36;0.20;57.70
13328;DHT22;6733;51.044;3.746;2024-01-11T00:50:02;0.20;57.70
13328;DHT22;6733;51.044;3.746;2024-01-11T00:52:28;0.20;57.60
13328;DHT22;6733;51.044;3.746;2024-01-11T00:54:54;0.20;57.70
13328;DHT22;6733;51.044;3.746;2024-01-11T00:57:21;0.20;57.50
13328;DHT22;6733;51.044;3.746;2024-01-11T00:59:47;0.10;57.70
13328;DHT22;6733;51.044;3.746;2024-01-11T01:02:13;0.20;57.60
13328;DHT22;6733;51.044;3.746;2024-01-11T01:04:39;0.10;57.80
13328;DHT22;6733;51.044;3.746;2024-01-11T01:07:05;0.10;57.70
13328;DHT22;6733;51.044;3.746;2024-01-11T01:09:32;0.10;57.70
13328;DHT22;6733;51.044;3.746;2024-01-11T01:11:58;0.10;57.60
13328;DHT22;6733;51.044;3.746;2024-01-11T01:14:24;0.00;57.70
13328;DHT22;6733;51.044;3.746;2024-01-11T01:16:50;0.10;57.70
13328;DHT22;6733;51.044;3.746;2024-01-11T01:19:16;0.10;57.80
13328;DHT22;6733;51.044;3.746;2024-01-11T01:21:42;0.00;57.90
13328;DHT22;6733;51.044;3.746;2024-01-11T01:24:09;0.00;57.80
13328;DHT22;6733;51.044;3.746;2024-01-11T01:26:35;0.00;57.80
13328;DHT22;6733;51.044;3.746;2024-01-11T01:29:01;0.00;58.10
13328;DHT22;6733;51.044;3.746;2024-01-11T01:31:27;0.00;58.20
13328;DHT22;6733;51.044;3.746;2024-01-11T01:33:54;0.00;58.30
13328;DHT22;6733;51.044;3.746;2024-01-11T01:36:20;0.00;58.20
13328;DHT22;6733;51.044;3.746;2024-01-11T01:38:46;0.00;58.50
13328;DHT22;6733;51.044;3.746;2024-01-11T01:41:12;0.00;58.60
13328;DHT22;6733;51.044;3.746;2024-01-11T01:43:38;0.00;58.60
13328;DHT22;6733;51.044;3.746;2024-01-11T01:46:05;0.00;58.60
13328;DHT22;6733;51.044;3.746;2024-01-11T01:48:32;0.00;58.70
13328;DHT22;6733;51.044;3.746;2024-01-11T01:50:58;0.00;58.60
13328;DHT22;6733;51.044;3.746;2024-01-11T01:53:26;0.00;58.50
13328;DHT22;6733;51.044;3.746;2024-01-11T01:55:54;0.00;58.50
13328;DHT22;6733;51.044;3.746;2024-01-11T01:58:21;0.00;58.40
13328;DHT22;6733;51.044;3.746;2024-01-11T02:00:50;0.00;58.60
13328;DHT22;6733;51.044;3.746;2024-01-11T02:03:17;0.00;58.50
13328;DHT22;6733;51.044;3.746;2024-01-11T02:05:44;0.00;58.60
13328;DHT22;6733;51.044;3.746;2024-01-11T02:08:15;0.00;58.80
13328;DHT22;6733;51.044;3.746;2024-01-11T02:10:43;0.00;58.60
13328;DHT22;6733;51.044;3.746;2024-01-11T02:13:11;0.00;58.70
13328;DHT22;6733;51.044;3.746;2024-01-11T02:15:39;0.00;58.70
13328;DHT22;6733;51.044;3.746;2024-01-11T02:18:05;0.00;58.90
13328;DHT22;6733;51.044;3.746;2024-01-11T02:20:31;0.00;58.80
13328;DHT22;6733;51.044;3.746;2024-01-11T02:23:03;0.00;58.70
13328;DHT22;6733;51.044;3.746;2024-01-11T02:25:30;0.00;58.70
13328;DHT22;6733;51.044;3.746;2024-01-11T02:27:56;0.00;58.70
13328;DHT22;6733;51.044;3.746;2024-01-11T02:30:23;0.00;58.70
13328;DHT22;6733;51.044;3.746;2024-01-11T02:32:50;0.00;58.70
13328;DHT22;6733;51.044;3.746;2024-01-11T02:35:17;0.00;58.70
13328;DHT22;6733;51.044;3.746;2024-01-11T02:38:08;-0.10;58.80
13328;DHT22;6733;51.044;3.746;2024-01-11T02:41:00;-0.10;58.80
13328;DHT22;6733;51.044;3.746;2024-01-11T02:43:52;0.00;58.70
13328;DHT22;6733;51.044;3.746;2024-01-11T02:46:44;-0.10;58.60
13328;DHT22;6733;51.044;3.746;2024-01-11T02:49:35;-0.10;58.70
13328;DHT22;6733;51.044;3.746;2024-01-11T02:52:26;-0.10;59.00
13328;DHT22;6733;51.044;3.746;2024-01-11T02:55:17;-0.10;58.90
13328;DHT22;6733;51.044;3.746;2024-01-11T02:58:08;-0.10;58.90
13328;DHT22;6733;51.044;3.746;2024-01-11T03:00:35;-0.20;59.10
13328;DHT22;6733;51.044;3.746;2024-01-11T03:03:01;-0.10;59.00
13328;DHT22;6733;51.044;3.746;2024-01-11T03:05:27;-0.10;59.10
13328;DHT22;6733;51.044;3.746;2024-01-11T03:07:54;-0.10;59.40
13328;DHT22;6733;51.044;3.746;2024-01-11T03:10:20;-0.10;59.20
13328;DHT22;6733;51.044;3.746;2024-01-11T03:12:47;-0.10;59.20
13328;DHT22;6733;51.044;3.746;2024-01-11T03:15:15;-0.10;59.30
13328;DHT22;6733;51.044;3.746;2024-01-11T03:17:41;-0.20;59.30
13328;DHT22;6733;51.044;3.746;2024-01-11T03:20:08;-0.20;59.50
13328;DHT22;6733;51.044;3.746;2024-01-11T03:22:34;-0.20;59.40
13328;DHT22;6733;51.044;3.746;2024-01-11T03:25:00;-0.20;59.30
13328;DHT22;6733;51.044;3.746;2024-01-11T03:27:26;-0.10;59.20
13328;DHT22;6733;51.044;3.746;2024-01-11T03:29:52;-0.10;59.20
13328;DHT22;6733;51.044;3.746;2024-01-11T03:32:19;-0.10;59.30
13328;DHT22;6733;51.044;3.746;2024-01-11T03:34:45;-0.10;59.40
13328;DHT22;6733;51.044;3.746;2024-01-11T03:37:11;-0.20;59.60
13328;DHT22;6733;51.044;3.746;2024-01-11T03:39:37;-0.20;59.70
13328;DHT22;6733;51.044;3.746;2024-01-11T03:42:03;-0.10;59.50
13328;DHT22;6733;51.044;3.746;2024-01-11T03:44:30;-0.10;59.70
13328;DHT22;6733;51.044;3.746;2024-01-11T03:46:57;-0.20;59.90
13328;DHT22;6733;51.044;3.746;2024-01-11T03:49:23;-0.20;60.10
13328;DHT22;6733;51.044;3.746;2024-01-11T03:51:49;-0.20;60.30
13328;DHT22;6733;51.044;3.746;2024-01-11T03:54:16;-0.20;60.50
13328;DHT22;6733;51.044;3.746;2024-01-11T03:56:42;-0.20;60.60
13328;DHT22;6733;51.044;3.746;2024-01-11T03:59:08;-0.30;60.70
13328;DHT22;6733;51.044;3.746;2024-01-11T04:01:40;-0.30;60.80
13328;DHT22;6733;51.044;3.746;2024-01-11T04:04:07;-0.30;60.80
13328;DHT22;6733;51.044;3.746;2024-01-11T04:06:33;-0.30;60.80
13328;DHT22;6733;51.044;3.746;2024-01-11T04:08:59;-0.30;60.70
13328;DHT22;6733;51.044;3.746;2024-01-11T04:11:28;-0.20;60.70
13328;DHT22;6733;51.044;3.746;2024-01-11T04:13:55;-0.20;60.60
13328;DHT22;6733;51.044;3.746;2024-01-11T04:16:21;-0.30;60.70
13328;DHT22;6733;51.044;3.746;2024-01-11T04:18:48;-0.30;60.90
13328;DHT22;6733;51.044;3.746;2024-01-11T04:21:21;-0.30;61.20
13328;DHT22;6733;51.044;3.746;2024-01-11T04:23:48;-0.30;61.20
13328;DHT22;6733;51.044;3.746;2024-01-11T04:26:14;-0.30;61.30
13328;DHT22;6733;51.044;3.746;2024-01-11T04:28:41;-0.30;61.20
13328;DHT22;6733;51.044;3.746;2024-01-11T04:31:08;-0.30;61.30
13328;DHT22;6733;51.044;3.746;2024-01-11T04:33:34;-0.30;61.60
13328;DHT22;6733;51.044;3.746;2024-01-11T04:36:00;-0.30;61.70
13328;DHT22;6733;51.044;3.746;2024-01-11T04:38:27;-0.30;61.70
13328;DHT22;6733;51.044;3.746;2024-01-11T04:40:53;-0.30;61.70
13328;DHT22;6733;51.044;3.746;2024-01-11T04:43:19;-0.40;61.70
13328;DHT22;6733;51.044;3.746;2024-01-11T04:45:45;-0.40;61.70
13328;DHT22;6733;51.044;3.746;2024-01-11T04:48:11;-0.40;61.80
13328;DHT22;6733;51.044;3.746;2024-01-11T04:50:37;-0.40;61.80
13328;DHT22;6733;51.044;3.746;2024-01-11T04:53:03;-0.50;61.90
13328;DHT22;6733;51.044;3.746;2024-01-11T04:55:29;-0.40;61.90
13328;DHT22;6733;51.044;3.746;2024-01-11T04:57:56;-0.50;62.10
13328;DHT22;6733;51.044;3.746;2024-01-11T05:00:22;-0.50;62.30
13328;DHT22;6733;51.044;3.746;2024-01-11T05:02:48;-0.50;62.40
13328;DHT22;6733;51.044;3.746;2024-01-11T05:05:14;-0.40;62.30
13328;DHT22;6733;51.044;3.746;2024-01-11T05:07:40;-0.40;62.30
13328;DHT22;6733;51.044;3.746;2024-01-11T05:10:07;-0.40;62.30
13328;DHT22;6733;51.044;3.746;2024-01-11T05:12:33;-0.40;62.40
13328;DHT22;6733;51.044;3.746;2024-01-11T05:15:00;-0.40;62.60
13328;DHT22;6733;51.044;3.746;2024-01-11T05:17:26;-0.40;62.70
13328;DHT22;6733;51.044;3.746;2024-01-11T05:19:53;-0.40;62.70
13328;DHT22;6733;51.044;3.746;2024-01-11T05:22:19;-0.40;62.70
13328;DHT22;6733;51.044;3.746;2024-01-11T05:24:45;-0.40;62.80
13328;DHT22;6733;51.044;3.746;2024-01-11T05:27:11;-0.40;62.90
13328;DHT22;6733;51.044;3.746;2024-01-11T05:29:37;-0.40;62.90
13328;DHT22;6733;51.044;3.746;2024-01-11T05:32:04;-0.40;62.90
13328;DHT22;6733;51.044;3.746;2024-01-11T05:34:30;-0.40;62.90
13328;DHT22;6733;51.044;3.746;2024-01-11T05:36:56;-0.40;62.90
13328;DHT22;6733;51.044;3.746;2024-01-11T05:39:22;-0.40;63.00
13328;DHT22;6733;51.044;3.746;2024-01-11T05:41:48;-0.40;62.90
13328;DHT22;6733;51.044;3.746;2024-01-11T05:44:15;-0.40;62.90
13328;DHT22;6733;51.044;3.746;2024-01-11T05:46:41;-0.40;62.90
13328;DHT22;6733;51.044;3.746;2024-01-11T05:49:07;-0.40;62.80
13328;DHT22;6733;51.044;3.746;2024-01-11T05:51:34;-0.40;62.90
13328;DHT22;6733;51.044;3.746;2024-01-11T05:54:00;-0.40;62.80
13328;DHT22;6733;51.044;3.746;2024-01-11T05:56:26;-0.30;62.80
13328;DHT22;6733;51.044;3.746;2024-01-11T05:58:52;-0.40;62.90
13328;DHT22;6733;51.044;3.746;2024-01-11T06:01:18;-0.40;62.90
13328;DHT22;6733;51.044;3.746;2024-01-11T06:03:45;-0.40;63.10
13328;DHT22;6733;51.044;3.746;2024-01-11T06:06:11;-0.30;63.00
13328;DHT22;6733;51.044;3.746;2024-01-11T06:08:38;-0.30;63.40
13328;DHT22;6733;51.044;3.746;2024-01-11T06:11:04;-0.30;63.30
13328;DHT22;6733;51.044;3.746;2024-01-11T06:13:30;-0.30;63.60
13328;DHT22;6733;51.044;3.746;2024-01-11T06:15:56;-0.30;63.50
13328;DHT22;6733;51.044;3.746;2024-01-11T06:18:22;-0.30;63.40
13328;DHT22;6733;51.044;3.746;2024-01-11T06:20:48;-0.30;63.60
13328;DHT22;6733;51.044;3.746;2024-01-11T06:23:15;-0.30;63.70
13328;DHT22;6733;51.044;3.746;2024-01-11T06:25:42;-0.30;63.50
13328;DHT22;6733;51.044;3.746;2024-01-11T06:28:09;-0.30;63.70
13328;DHT22;6733;51.044;3.746;2024-01-11T06:30:35;-0.30;63.50
13328;DHT22;6733;51.044;3.746;2024-01-11T06:33:02;-0.30;63.30
13328;DHT22;6733;51.044;3.746;2024-01-11T06:35:29;-0.30;63.10
13328;DHT22;6733;51.044;3.746;2024-01-11T06:37:55;-0.30;63.20
13328;DHT22;6733;51.044;3.746;2024-01-11T06:40:21;-0.30;63.30
13328;DHT22;6733;51.044;3.746;2024-01-11T06:42:47;-0.20;63.30
13328;DHT22;6733;51.044;3.746;2024-01-11T06:45:14;-0.30;63.30
13328;DHT22;6733;51.044;3.746;2024-01-11T06:47:40;-0.30;63.40
13328;DHT22;6733;51.044;3.746;2024-01-11T06:50:07;-0.30;63.50
13328;DHT22;6733;51.044;3.746;2024-01-11T06:52:34;-0.30;63.50
13328;DHT22;6733;51.044;3.746;2024-01-11T06:55:00;-0.30;63.50
13328;DHT22;6733;51.044;3.746;2024-01-11T06:57:27;-0.30;63.50
13328;DHT22;6733;51.044;3.746;2024-01-11T06:59:53;-0.30;63.60
13328;DHT22;6733;51.044;3.746;2024-01-11T07:02:19;-0.30;63.70
13328;DHT22;6733;51.044;3.746;2024-01-11T07:04:45;-0.30;63.60
13328;DHT22;6733;51.044;3.746;2024-01-11T07:07:11;-0.30;63.70
13328;DHT22;6733;51.044;3.746;2024-01-11T07:09:37;-0.30;63.70
13328;DHT22;6733;51.044;3.746;2024-01-11T07:12:04;-0.30;63.70
13328;DHT22;6733;51.044;3.746;2024-01-11T07:14:30;-0.30;63.80
13328;DHT22;6733;51.044;3.746;2024-01-11T07:16:58;-0.30;63.80
13328;DHT22;6733;51.044;3.746;2024-01-11T07:19:24;-0.40;64.00
13328;DHT22;6733;51.044;3.746;2024-01-11T07:21:50;-0.40;63.90
13328;DHT22;6733;51.044;3.746;2024-01-11T07:24:16;-0.40;63.90
13328;DHT22;6733;51.044;3.746;2024-01-11T07:26:44;-0.40;63.90
13328;DHT22;6733;51.044;3.746;2024-01-11T07:29:10;-0.40;64.00
13328;DHT22;6733;51.044;3.746;2024-01-11T07:31:36;-0.40;64.00
13328;DHT22;6733;51.044;3.746;2024-01-11T07:34:03;-0.40;64.10
13328;DHT22;6733;51.044;3.746;2024-01-11T07:36:29;-0.40;64.10
13328;DHT22;6733;51.044;3.746;2024-01-11T07:38:56;-0.50;64.10
13328;DHT22;6733;51.044;3.746;2024-01-11T07:41:22;-0.50;64.30
13328;DHT22;6733;51.044;3.746;2024-01-11T07:43:48;-0.50;64.30
13328;DHT22;6733;51.044;3.746;2024-01-11T07:46:14;-0.50;64.30
13328;DHT22;6733;51.044;3.746;2024-01-11T07:48:41;-0.50;64.30
13328;DHT22;6733;51.044;3.746;2024-01-11T07:51:07;-0.50;64.40
13328;DHT22;6733;51.044;3.746;2024-01-11T07:53:33;-0.50;64.40
13328;DHT22;6733;51.044;3.746;2024-01-11T07:55:59;-0.50;64.40
13328;DHT22;6733;51.044;3.746;2024-01-11T07:58:25;-0.50;64.50
13328;DHT22;6733;51.044;3.746;2024-01-11T08:00:52;-0.50;64.50
13328;DHT22;6733;51.044;3.746;2024-01-11T08:03:18;-0.50;64.50
13328;DHT22;6733;51.044;3.746;2024-01-11T08:05:44;-0.50;64.30
13328;DHT22;6733;51.044;3.746;2024-01-11T08:08:10;-0.50;64.40
13328;DHT22;6733;51.044;3.746;2024-01-11T08:10:37;-0.50;64.50
13328;DHT22;6733;51.044;3.746;2024-01-11T08:13:03;-0.50;64.50
13328;DHT22;6733;51.044;3.746;2024-01-11T08:15:29;-0.50;64.30
13328;DHT22;6733;51.044;3.746;2024-01-11T08:17:56;-0.50;64.30
13328;DHT22;6733;51.044;3.746;2024-01-11T08:20:22;-0.50;64.30
13328;DHT22;6733;51.044;3.746;2024-01-11T08:22:48;-0.40;64.20
13328;DHT22;6733;51.044;3.746;2024-01-11T08:25:14;-0.40;64.20
13328;DHT22;6733;51.044;3.746;2024-01-11T08:27:41;-0.40;64.30
13328;DHT22;6733;51.044;3.746;2024-01-11T08:30:07;-0.40;64.30
13328;DHT22;6733;51.044;3.746;2024-01-11T08:32:34;-0.40;64.30
13328;DHT22;6733;51.044;3.746;2024-01-11T08:35:05;-0.40;64.30
13328;DHT22;6733;51.044;3.746;2024-01-11T08:37:32;-0.30;64.20
13328;DHT22;6733;51.044;3.746;2024-01-11T08:39:59;-0.30;64.30
13328;DHT22;6733;51.044;3.746;2024-01-11T08:42:25;-0.30;63.90
13328;DHT22;6733;51.044;3.746;2024-01-11T08:44:51;-0.40;64.00
13328;DHT22;6733;51.044;3.746;2024-01-11T08:47:18;-0.40;64.00
13328;DHT22;6733;51.044;3.746;2024-01-11T08:49:44;-0.30;63.90
13328;DHT22;6733;51.044;3.746;2024-01-11T08:52:10;-0.20;63.80
13328;DHT22;6733;51.044;3.746;2024-01-11T08:54:36;-0.20;63.70
13328;DHT22;6733;51.044;3.746;2024-01-11T08:57:03;-0.20;63.40
13328;DHT22;6733;51.044;3.746;2024-01-11T08:59:29;-0.20;63.40
13328;DHT22;6733;51.044;3.746;2024-01-11T09:01:55;-0.20;63.50
13328;DHT22;6733;51.044;3.746;2024-01-11T09:04:21;-0.20;63.60
13328;DHT22;6733;51.044;3.746;2024-01-11T09:06:47;-0.10;63.50
13328;DHT22;6733;51.044;3.746;2024-01-11T09:09:14;-0.10;63.40
13328;DHT22;6733;51.044;3.746;2024-01-11T09:11:41;0.00;63.10
13328;DHT22;6733;51.044;3.746;2024-01-11T09:14:07;0.00;62.80
13328;DHT22;6733;51.044;3.746;2024-01-11T09:16:37;0.00;62.90
13328;DHT22;6733;51.044;3.746;2024-01-11T09:19:03;0.00;62.90
13328;DHT22;6733;51.044;3.746;2024-01-11T09:21:29;0.00;62.80
13328;DHT22;6733;51.044;3.746;2024-01-11T09:23:55;0.00;62.80
13328;DHT22;6733;51.044;3.746;2024-01-11T09:26:21;0.00;62.70
13328;DHT22;6733;51.044;3.746;2024-01-11T09:28:48;0.10;62.60
13328;DHT22;6733;51.044;3.746;2024-01-11T09:31:15;0.20;62.50
13328;DHT22;6733;51.044;3.746;2024-01-11T09:33:41;0.20;62.30
13328;DHT22;6733;51.044;3.746;2024-01-11T09:36:13;0.20;62.10
13328;DHT22;6733;51.044;3.746;2024-01-11T09:38:39;0.20;62.20
13328;DHT22;6733;51.044;3.746;2024-01-11T09:41:07;0.30;61.90
13328;DHT22;6733;51.044;3.746;2024-01-11T09:43:35;0.30;61.80
13328;DHT22;6733;51.044;3.746;2024-01-11T09:46:05;0.40;61.60
13328;DHT22;6733;51.044;3.746;2024-01-11T09:48:37;0.50;61.50
13328;DHT22;6733;51.044;3.746;2024-01-11T09:51:04;0.50;61.60
13328;DHT22;6733;51.044;3.746;2024-01-11T09:53:34;0.60;61.20
13328;DHT22;6733;51.044;3.746;2024-01-11T09:56:00;0.60;61.20
13328;DHT22;6733;51.044;3.746;2024-01-11T09:58:26;0.70;61.00
13328;DHT22;6733;51.044;3.746;2024-01-11T10:00:56;0.70;60.80
13328;DHT22;6733;51.044;3.746;2024-01-11T10:03:25;0.80;60.50
13328;DHT22;6733;51.044;3.746;2024-01-11T10:05:57;0.90;60.50
13328;DHT22;6733;51.044;3.746;2024-01-11T10:08:23;0.90;60.30
13328;DHT22;6733;51.044;3.746;2024-01-11T10:10:49;1.00;60.10
13328;DHT22;6733;51.044;3.746;2024-01-11T10:13:16;1.00;59.90
13328;DHT22;6733;51.044;3.746;2024-01-11T10:15:43;1.10;59.50
13328;DHT22;6733;51.044;3.746;2024-01-11T10:18:10;1.10;59.40
13328;DHT22;6733;51.044;3.746;2024-01-11T10:20:37;1.20;59.10
13328;DHT22;6733;51.044;3.746;2024-01-11T10:23:03;1.30;58.40
13328;DHT22;6733;51.044;3.746;2024-01-11T10:25:29;1.30;58.60
13328;DHT22;6733;51.044;3.746;2024-01-11T10:27:56;1.40;58.50
13328;DHT22;6733;51.044;3.746;2024-01-11T10:30:23;1.50;57.80
13328;DHT22;6733;51.044;3.746;2024-01-11T10:32:51;1.60;57.50
13328;DHT22;6733;51.044;3.746;2024-01-11T10:35:17;1.70;56.80
13328;DHT22;6733;51.044;3.746;2024-01-11T10:37:44;1.80;56.90
13328;DHT22;6733;51.044;3.746;2024-01-11T10:40:11;1.90;56.40
13328;DHT22;6733;51.044;3.746;2024-01-11T10:42:45;2.00;56.20
13328;DHT22;6733;51.044;3.746;2024-01-11T10:45:16;2.10;55.60
13328;DHT22;6733;51.044;3.746;2024-01-11T10:47:54;2.20;55.20
13328;DHT22;6733;51.044;3.746;2024-01-11T10:50:22;2.40;54.90
13328;DHT22;6733;51.044;3.746;2024-01-11T10:55:37;2.50;54.10
13328;DHT22;6733;51.044;3.746;2024-01-11T10:58:04;2.70;53.30
13328;DHT22;6733;51.044;3.746;2024-01-11T11:00:31;2.80;52.70
13328;DHT22;6733;51.044;3.746;2024-01-11T11:03:00;2.90;52.20
13328;DHT22;6733;51.044;3.746;2024-01-11T11:05:29;2.90;51.10
13328;DHT22;6733;51.044;3.746;2024-01-11T11:07:59;3.10;50.90
13328;DHT22;6733;51.044;3.746;2024-01-11T11:10:28;3.20;51.00
13328;DHT22;6733;51.044;3.746;2024-01-11T11:12:57;3.30;50.80
13328;DHT22;6733;51.044;3.746;2024-01-11T11:15:27;3.50;50.70
13328;DHT22;6733;51.044;3.746;2024-01-11T11:17:54;3.60;50.60
13328;DHT22;6733;51.044;3.746;2024-01-11T11:20:20;3.70;50.40
13328;DHT22;6733;51.044;3.746;2024-01-11T11:23:16;3.80;49.90
13328;DHT22;6733;51.044;3.746;2024-01-11T11:25:45;4.00;49.80
13328;DHT22;6733;51.044;3.746;2024-01-11T11:28:12;4.10;49.50
13328;DHT22;6733;51.044;3.746;2024-01-11T11:30:41;4.30;49.10
13328;DHT22;6733;51.044;3.746;2024-01-11T11:33:22;4.40;49.20
13328;DHT22;6733;51.044;3.746;2024-01-11T11:35:53;4.60;49.10
13328;DHT22;6733;51.044;3.746;2024-01-11T11:38:22;4.70;48.40
13328;DHT22;6733;51.044;3.746;2024-01-11T11:40:50;4.80;47.90
13328;DHT22;6733;51.044;3.746;2024-01-11T11:43:17;4.90;48.30
13328;DHT22;6733;51.044;3.746;2024-01-11T11:45:45;5.00;47.70
13328;DHT22;6733;51.044;3.746;2024-01-11T11:51:11;5.30;47.10
13328;DHT22;6733;51.044;3.746;2024-01-11T11:53:39;5.40;47.20
13328;DHT22;6733;51.044;3.746;2024-01-11T11:56:07;5.50;46.70
13328;DHT22;6733;51.044;3.746;2024-01-11T11:58:34;5.60;46.50
13328;DHT22;6733;51.044;3.746;2024-01-11T12:01:01;5.70;46.00
13328;DHT22;6733;51.044;3.746;2024-01-11T12:03:40;5.80;46.00
13328;DHT22;6733;51.044;3.746;2024-01-11T12:06:08;5.80;45.70
13328;DHT22;6733;51.044;3.746;2024-01-11T12:08:36;5.90;45.10
13328;DHT22;6733;51.044;3.746;2024-01-11T12:11:03;6.00;45.00
13328;DHT22;6733;51.044;3.746;2024-01-11T12:13:29;6.10;44.60
13328;DHT22;6733;51.044;3.746;2024-01-11T12:15:57;6.20;44.10
13328;DHT22;6733;51.044;3.746;2024-01-11T12:18:23;6.30;43.90
13328;DHT22;6733;51.044;3.746;2024-01-11T12:20:49;6.40;44.20
13328;DHT22;6733;51.044;3.746;2024-01-11T12:23:16;6.50;44.00
13328;DHT22;6733;51.044;3.746;2024-01-11T12:25:42;6.50;43.20
13328;DHT22;6733;51.044;3.746;2024-01-11T12:28:09;6.40;43.30
13328;DHT22;6733;51.044;3.746;2024-01-11T12:30:35;6.40;43.10
13328;DHT22;6733;51.044;3.746;2024-01-11T12:33:02;6.50;42.90
13328;DHT22;6733;51.044;3.746;2024-01-11T12:35:28;6.50;42.70
13328;DHT22;6733;51.044;3.746;2024-01-11T12:38:04;6.50;42.70
13328;DHT22;6733;51.044;3.746;2024-01-11T12:40:36;6.50;43.20
13328;DHT22;6733;51.044;3.746;2024-01-11T12:43:06;6.60;43.50
13328;DHT22;6733;51.044;3.746;2024-01-11T12:45:34;6.60;43.70
13328;DHT22;6733;51.044;3.746;2024-01-11T12:48:01;6.60;43.80
13328;DHT22;6733;51.044;3.746;2024-01-11T12:50:30;6.60;44.20
13328;DHT22;6733;51.044;3.746;2024-01-11T12:53:14;6.60;44.40
13328;DHT22;6733;51.044;3.746;2024-01-11T12:55:47;6.70;44.60
13328;DHT22;6733;51.044;3.746;2024-01-11T12:58:19;6.70;44.60
13328;DHT22;6733;51.044;3.746;2024-01-11T13:00:46;6.70;44.80
13328;DHT22;6733;51.044;3.746;2024-01-11T13:03:13;6.70;45.00
13328;DHT22;6733;51.044;3.746;2024-01-11T13:05:39;6.70;44.90
13328;DHT22;6733;51.044;3.746;2024-01-11T13:08:08;6.60;45.00
13328;DHT22;6733;51.044;3.746;2024-01-11T13:10:35;6.60;45.40
13328;DHT22;6733;51.044;3.746;2024-01-11T13:13:02;6.50;45.50
13328;DHT22;6733;51.044;3.746;2024-01-11T13:15:29;6.40;45.60
13328;DHT22;6733;51.044;3.746;2024-01-11T13:17:55;6.50;45.10
13328;DHT22;6733;51.044;3.746;2024-01-11T13:20:23;6.40;45.10
13328;DHT22;6733;51.044;3.746;2024-01-11T13:22:57;6.20;44.60
13328;DHT22;6733;51.044;3.746;2024-01-11T13:25:36;6.10;44.70
13328;DHT22;6733;51.044;3.746;2024-01-11T13:28:02;6.00;44.60
13328;DHT22;6733;51.044;3.746;2024-01-11T13:30:28;6.00;44.70
13328;DHT22;6733;51.044;3.746;2024-01-11T13:32:54;6.00;44.60
13328;DHT22;6733;51.044;3.746;2024-01-11T13:35:21;5.90;44.40
13328;DHT22;6733;51.044;3.746;2024-01-11T13:37:47;5.90;43.70
13328;DHT22;6733;51.044;3.746;2024-01-11T13:40:13;5.80;43.10
13328;DHT22;6733;51.044;3.746;2024-01-11T13:42:40;5.70;42.40
13328;DHT22;6733;51.044;3.746;2024-01-11T13:45:07;5.70;42.30
13328;DHT22;6733;51.044;3.746;2024-01-11T13:47:35;5.60;42.20
13328;DHT22;6733;51.044;3.746;2024-01-11T13:50:01;5.50;42.60
13328;DHT22;6733;51.044;3.746;2024-01-11T13:52:28;5.50;43.20
13328;DHT22;6733;51.044;3.746;2024-01-11T13:54:54;5.50;43.90
13328;DHT22;6733;51.044;3.746;2024-01-11T13:57:20;5.50;44.30
13328;DHT22;6733;51.044;3.746;2024-01-11T13:59:47;5.50;44.90
13328;DHT22;6733;51.044;3.746;2024-01-11T14:02:13;5.40;45.50
13328;DHT22;6733;51.044;3.746;2024-01-11T14:04:39;5.40;46.30
13328;DHT22;6733;51.044;3.746;2024-01-11T14:07:06;5.30;47.10
13328;DHT22;6733;51.044;3.746;2024-01-11T14:09:32;5.40;47.60
13328;DHT22;6733;51.044;3.746;2024-01-11T14:11:58;5.30;48.20
13328;DHT22;6733;51.044;3.746;2024-01-11T14:14:24;5.30;48.90
13328;DHT22;6733;51.044;3.746;2024-01-11T14:16:51;5.40;49.50
13328;DHT22;6733;51.044;3.746;2024-01-11T14:19:17;5.30;50.30
13328;DHT22;6733;51.044;3.746;2024-01-11T14:21:43;5.30;51.20
13328;DHT22;6733;51.044;3.746;2024-01-11T14:24:09;5.20;52.50
13328;DHT22;6733;51.044;3.746;2024-01-11T14:26:36;5.20;53.80
13328;DHT22;6733;51.044;3.746;2024-01-11T14:29:02;5.10;55.60
13328;DHT22;6733;51.044;3.746;2024-01-11T14:31:28;5.00;58.40
13328;DHT22;6733;51.044;3.746;2024-01-11T14:33:55;5.00;59.90
13328;DHT22;6733;51.044;3.746;2024-01-11T14:36:21;5.10;60.70
13328;DHT22;6733;51.044;3.746;2024-01-11T14:38:47;5.10;61.70
13328;DHT22;6733;51.044;3.746;2024-01-11T14:41:14;5.10;62.10
13328;DHT22;6733;51.044;3.746;2024-01-11T14:43:40;5.10;62.30
13328;DHT22;6733;51.044;3.746;2024-01-11T14:46:06;5.20;62.40
13328;DHT22;6733;51.044;3.746;2024-01-11T14:48:36;5.10;62.80
13328;DHT22;6733;51.044;3.746;2024-01-11T14:51:02;5.10;63.30
13328;DHT22;6733;51.044;3.746;2024-01-11T14:53:28;5.10;63.60
13328;DHT22;6733;51.044;3.746;2024-01-11T14:55:55;5.10;63.80
13328;DHT22;6733;51.044;3.746;2024-01-11T14:58:21;5.00;64.00
13328;DHT22;6733;51.044;3.746;2024-01-11T15:00:47;5.00;64.40
13328;DHT22;6733;51.044;3.746;2024-01-11T15:03:13;5.00;64.60
13328;DHT22;6733;51.044;3.746;2024-01-11T15:05:39;5.10;64.50
13328;DHT22;6733;51.044;3.746;2024-01-11T15:08:06;5.10;64.30
13328;DHT22;6733;51.044;3.746;2024-01-11T15:10:32;5.10;64.30
13328;DHT22;6733;51.044;3.746;2024-01-11T15:12:58;5.20;64.20
13328;DHT22;6733;51.044;3.746;2024-01-11T15:15:24;5.20;64.40
13328;DHT22;6733;51.044;3.746;2024-01-11T15:17:51;5.20;64.40
13328;DHT22;6733;51.044;3.746;2024-01-11T15:20:18;5.20;64.50
13328;DHT22;6733;51.044;3.746;2024-01-11T15:22:44;5.20;64.40
13328;DHT22;6733;51.044;3.746;2024-01-11T15:25:10;5.20;64.50
13328;DHT22;6733;51.044;3.746;2024-01-11T15:27:36;5.20;64.40
13328;DHT22;6733;51.044;3.746;2024-01-11T15:30:02;5.20;64.30
13328;DHT22;6733;51.044;3.746;2024-01-11T15:32:29;5.20;64.30
13328;DHT22;6733;51.044;3.746;2024-01-11T15:34:55;5.20;64.30
13328;DHT22;6733;51.044;3.746;2024-01-11T15:37:21;5.20;64.40
13328;DHT22;6733;51.044;3.746;2024-01-11T15:39:49;5.20;64.40
13328;DHT22;6733;51.044;3.746;2024-01-11T15:42:15;5.30;64.40
13328;DHT22;6733;51.044;3.746;2024-01-11T15:44:42;5.30;64.50
13328;DHT22;6733;51.044;3.746;2024-01-11T15:47:08;5.30;64.40
13328;DHT22;6733;51.044;3.746;2024-01-11T15:49:36;5.20;64.40
13328;DHT22;6733;51.044;3.746;2024-01-11T15:52:03;5.20;64.50
13328;DHT22;6733;51.044;3.746;2024-01-11T15:54:29;5.20;64.60
13328;DHT22;6733;51.044;3.746;2024-01-11T15:56:55;5.20;64.70
13328;DHT22;6733;51.044;3.746;2024-01-11T15:59:21;5.20;64.80
13328;DHT22;6733;51.044;3.746;2024-01-11T16:01:47;5.20;64.90